createdAt,value
2022-09-26T00:00:42.265Z,12.60
2022-09-26T00:03:09.994Z,12.60
2022-09-26T00:05:37.553Z,12.60
2022-09-26T00:08:05.293Z,12.50
2022-09-26T00:10:32.498Z,12.50
2022-09-26T00:12:59.578Z,12.50
2022-09-26T00:15:26.539Z,12.50
2022-09-26T00:17:53.521Z,12.50
2022-09-26T00:20:20.463Z,12.40
2022-09-26T00:22:47.310Z,12.40
2022-09-26T00:25:14.228Z,12.40
2022-09-26T00:27:41.081Z,12.40
2022-09-26T00:30:08.524Z,12.40
2022-09-26T00:32:35.364Z,12.30
2022-09-26T00:35:02.351Z,12.40
2022-09-26T00:37:29.198Z,12.30
2022-09-26T00:39:57.252Z,12.30
2022-09-26T00:42:25.331Z,12.30
2022-09-26T00:44:56.855Z,12.40
2022-09-26T00:47:50.227Z,12.40
2022-09-26T00:50:20.786Z,12.40
2022-09-26T00:53:03.267Z,12.30
2022-09-26T00:55:36.287Z,12.30
2022-09-26T00:58:07.205Z,12.30
2022-09-26T01:00:34.366Z,12.20
2022-09-26T01:03:02.601Z,12.20
2022-09-26T01:05:29.454Z,12.10
2022-09-26T01:07:57.064Z,12.10
2022-09-26T01:10:27.113Z,12.10
2022-09-26T01:12:54.617Z,12.00
2022-09-26T01:15:21.819Z,12.00
2022-09-26T01:17:48.794Z,12.00
2022-09-26T01:20:40.425Z,12.00
2022-09-26T01:23:25.342Z,12.00
2022-09-26T01:26:47.685Z,12.00
2022-09-26T01:29:41.602Z,12.00
2022-09-26T01:32:47.102Z,12.00
2022-09-26T01:35:26.936Z,12.00
2022-09-26T01:38:11.684Z,12.00
2022-09-26T01:40:54.874Z,12.00
2022-09-26T01:43:30.578Z,12.00
2022-09-26T01:46:09.118Z,12.10
2022-09-26T01:48:41.367Z,12.10
2022-09-26T01:51:12.777Z,12.00
2022-09-26T01:53:47.298Z,12.00
2022-09-26T01:56:19.855Z,11.90
2022-09-26T01:59:18.938Z,11.90
2022-09-26T02:01:50.802Z,11.90
2022-09-26T02:04:22.890Z,11.90
2022-09-26T02:06:51.751Z,11.90
2022-09-26T02:09:26.894Z,11.90
2022-09-26T02:11:56.403Z,11.90
2022-09-26T02:14:27.521Z,11.90
2022-09-26T02:16:56.890Z,11.90
2022-09-26T02:19:29.339Z,11.90
2022-09-26T02:21:56.563Z,11.90
2022-09-26T02:24:23.453Z,11.90
2022-09-26T02:26:51.195Z,11.90
2022-09-26T02:29:20.670Z,12.00
2022-09-26T02:31:58.471Z,11.90
2022-09-26T02:34:25.676Z,11.80
2022-09-26T02:36:53.623Z,11.80
2022-09-26T02:39:20.655Z,11.80
2022-09-26T02:42:25.243Z,11.80
2022-09-26T02:45:06.893Z,11.80
2022-09-26T02:48:03.069Z,11.80
2022-09-26T02:50:37.494Z,11.70
2022-09-26T02:53:17.424Z,11.70
2022-09-26T02:55:57.883Z,11.70
2022-09-26T02:58:37.471Z,11.70
2022-09-26T03:01:21.802Z,11.70
2022-09-26T03:04:16.475Z,11.70
2022-09-26T03:06:45.526Z,11.70
2022-09-26T03:09:13.070Z,11.70
2022-09-26T03:11:41.111Z,11.80
2022-09-26T03:14:08.351Z,11.80
2022-09-26T03:16:38.540Z,11.80
2022-09-26T03:19:27.449Z,11.90
2022-09-26T03:21:54.963Z,11.80
2022-09-26T03:24:23.660Z,11.80
2022-09-26T03:26:50.831Z,11.90
2022-09-26T03:29:19.946Z,11.90
2022-09-26T03:31:47.226Z,11.90
2022-09-26T03:34:14.146Z,11.90
2022-09-26T03:36:41.190Z,11.90
2022-09-26T03:39:10.186Z,11.90
2022-09-26T03:41:49.056Z,11.90
2022-09-26T03:44:18.723Z,11.90
2022-09-26T03:47:12.211Z,11.90
2022-09-26T03:49:41.591Z,11.90
2022-09-26T03:52:12.495Z,11.80
2022-09-26T03:54:40.847Z,11.80
2022-09-26T03:57:07.830Z,11.80
2022-09-26T03:59:39.510Z,11.80
2022-09-26T04:02:07.156Z,11.80
2022-09-26T04:04:39.000Z,11.80
2022-09-26T04:07:06.245Z,11.80
2022-09-26T04:09:33.149Z,11.80
2022-09-26T04:12:01.027Z,11.70
2022-09-26T04:14:28.089Z,11.70
2022-09-26T04:16:58.725Z,11.80
2022-09-26T04:19:36.961Z,11.70
2022-09-26T04:22:04.512Z,11.70
2022-09-26T04:24:34.718Z,11.80
2022-09-26T04:27:01.625Z,11.80
2022-09-26T04:29:30.015Z,11.70
2022-09-26T04:32:17.543Z,11.80
2022-09-26T04:35:13.366Z,11.80
2022-09-26T04:37:41.226Z,11.80
2022-09-26T04:40:11.332Z,11.80
2022-09-26T04:42:44.687Z,11.80
2022-09-26T04:45:11.692Z,11.70
2022-09-26T04:47:38.698Z,11.70
2022-09-26T04:50:26.327Z,11.80
2022-09-26T04:53:06.597Z,11.70
2022-09-26T04:55:37.618Z,11.80
2022-09-26T04:58:04.491Z,11.80
2022-09-26T05:00:32.346Z,11.80
2022-09-26T05:03:03.302Z,11.90
2022-09-26T05:05:31.338Z,11.90
2022-09-26T05:07:58.310Z,11.90
2022-09-26T05:10:25.360Z,12.00
2022-09-26T05:13:00.836Z,12.00
2022-09-26T05:15:27.676Z,12.10
2022-09-26T05:17:59.548Z,12.10
2022-09-26T05:20:29.479Z,12.20
2022-09-26T05:22:59.452Z,12.20
2022-09-26T05:25:45.480Z,12.20
2022-09-26T05:28:12.566Z,12.20
2022-09-26T05:30:41.046Z,12.20
2022-09-26T05:33:09.261Z,12.30
2022-09-26T05:35:36.159Z,12.30
2022-09-26T05:38:03.953Z,12.40
2022-09-26T05:40:51.024Z,12.40
2022-09-26T05:43:18.060Z,12.50
2022-09-26T05:45:50.966Z,12.50
2022-09-26T05:48:25.691Z,12.50
2022-09-26T05:50:53.031Z,12.60
2022-09-26T05:53:20.870Z,12.60
2022-09-26T05:55:51.298Z,12.60
2022-09-26T05:58:34.685Z,12.60
2022-09-26T06:01:31.941Z,12.60
2022-09-26T06:04:06.525Z,12.60
2022-09-26T06:06:44.353Z,12.70
2022-09-26T06:09:15.655Z,12.70
2022-09-26T06:12:14.735Z,12.80
2022-09-26T06:14:46.829Z,12.80
2022-09-26T06:17:14.120Z,12.70
2022-09-26T06:19:41.204Z,12.70
2022-09-26T06:22:08.162Z,12.70
2022-09-26T06:24:35.077Z,12.80
2022-09-26T06:27:02.875Z,12.80
2022-09-26T06:29:30.479Z,12.80
2022-09-26T06:31:57.664Z,12.90
2022-09-26T06:35:03.607Z,12.90
2022-09-26T06:37:42.870Z,12.90
2022-09-26T06:40:11.708Z,12.90
2022-09-26T06:42:39.289Z,13.00
2022-09-26T06:45:39.434Z,13.00
2022-09-26T06:48:17.366Z,13.00
2022-09-26T06:51:09.108Z,13.00
2022-09-26T06:53:36.177Z,13.00
2022-09-26T06:56:03.124Z,13.00
2022-09-26T06:58:30.702Z,13.10
2022-09-26T07:01:03.978Z,13.10
2022-09-26T07:03:49.385Z,13.10
2022-09-26T07:06:34.445Z,13.20
2022-09-26T07:09:06.405Z,13.20
2022-09-26T07:12:13.504Z,13.30
2022-09-26T07:14:37.657Z,13.30
2022-09-26T07:17:15.632Z,13.30
2022-09-26T07:19:46.765Z,13.30
2022-09-26T07:22:33.744Z,13.20
2022-09-26T07:25:00.631Z,13.20
2022-09-26T07:27:27.603Z,13.30
2022-09-26T07:29:54.665Z,13.30
2022-09-26T07:32:22.590Z,13.30
2022-09-26T07:35:10.102Z,13.40
2022-09-26T07:37:37.096Z,13.40
2022-09-26T07:40:06.008Z,13.50
2022-09-26T07:42:33.207Z,13.60
2022-09-26T07:48:05.686Z,13.70
2022-09-26T07:51:09.110Z,13.70
2022-09-26T07:53:43.691Z,13.90
2022-09-26T07:56:36.738Z,14.10
2022-09-26T07:59:26.637Z,14.30
2022-09-26T08:02:05.155Z,14.50
2022-09-26T08:04:37.587Z,14.40
2022-09-26T08:07:04.499Z,14.30
2022-09-26T08:09:36.505Z,14.40
2022-09-26T08:12:22.183Z,14.60
2022-09-26T08:15:07.758Z,14.60
2022-09-26T08:17:46.439Z,14.90
2022-09-26T08:20:13.327Z,14.90
2022-09-26T08:22:40.187Z,14.80
2022-09-26T08:25:08.481Z,15.00
2022-09-26T08:28:01.671Z,15.00
2022-09-26T08:30:31.404Z,15.10
2022-09-26T08:33:02.182Z,15.30
2022-09-26T08:35:38.531Z,15.30
2022-09-26T08:38:17.950Z,15.30
2022-09-26T08:40:49.828Z,15.30
2022-09-26T08:43:57.847Z,15.20
2022-09-26T08:47:02.141Z,15.00
2022-09-26T08:50:34.088Z,15.00
2022-09-26T08:53:10.547Z,15.10
2022-09-26T08:55:45.033Z,15.30
2022-09-26T08:58:18.600Z,15.50
2022-09-26T09:00:47.457Z,15.50
2022-09-26T09:03:23.846Z,15.60
2022-09-26T09:06:05.493Z,15.70
2022-09-26T09:08:37.976Z,15.80
2022-09-26T09:11:34.252Z,15.80
2022-09-26T09:14:38.122Z,15.70
2022-09-26T09:17:30.683Z,15.90
2022-09-26T09:20:20.592Z,16.10
2022-09-26T09:22:57.874Z,16.30
2022-09-26T09:25:34.003Z,16.30
2022-09-26T09:28:22.668Z,16.50
2022-09-26T09:30:55.737Z,16.40
2022-09-26T09:33:43.936Z,16.30
2022-09-26T09:36:19.824Z,16.40
2022-09-26T09:39:11.017Z,16.50
2022-09-26T09:41:50.698Z,16.60
2022-09-26T09:44:25.854Z,16.50
2022-09-26T09:46:53.757Z,16.50
2022-09-26T09:49:22.506Z,16.50
2022-09-26T09:52:31.061Z,16.40
2022-09-26T09:54:59.581Z,16.40
2022-09-26T09:58:08.765Z,16.40
2022-09-26T10:00:51.291Z,16.50
2022-09-26T10:03:37.902Z,16.40
2022-09-26T10:06:05.326Z,16.30
2022-09-26T10:08:39.392Z,16.10
2022-09-26T10:11:12.486Z,16.10
2022-09-26T10:14:03.419Z,15.90
2022-09-26T10:17:11.082Z,15.90
2022-09-26T10:20:04.399Z,15.90
2022-09-26T10:22:42.499Z,15.90
2022-09-26T10:25:21.550Z,15.70
2022-09-26T10:27:51.719Z,15.70
2022-09-26T10:30:18.737Z,15.70
2022-09-26T10:32:49.835Z,15.70
2022-09-26T10:35:45.628Z,15.80
2022-09-26T10:38:19.792Z,15.80
2022-09-26T10:40:55.783Z,15.70
2022-09-26T10:43:32.096Z,15.60
2022-09-26T10:46:12.330Z,15.60
2022-09-26T10:48:59.698Z,15.60
2022-09-26T10:51:47.459Z,15.80
2022-09-26T10:54:26.856Z,15.80
2022-09-26T10:56:57.663Z,15.90
2022-09-26T10:59:27.083Z,16.00
2022-09-26T11:01:59.447Z,16.20
2022-09-26T11:04:47.763Z,16.50
2022-09-26T11:07:39.792Z,16.80
2022-09-26T11:10:42.277Z,16.50
2022-09-26T11:13:24.078Z,16.30
2022-09-26T11:16:01.664Z,16.10
2022-09-26T11:18:46.090Z,16.00
2022-09-26T11:21:28.412Z,15.90
2022-09-26T11:24:14.870Z,16.00
2022-09-26T11:27:13.970Z,16.00
2022-09-26T11:30:09.195Z,16.10
2022-09-26T11:32:41.457Z,16.30
2022-09-26T11:35:49.966Z,16.30
2022-09-26T11:38:23.929Z,16.30
2022-09-26T11:41:01.869Z,16.30
2022-09-26T11:43:51.427Z,16.30
2022-09-26T11:46:48.703Z,16.10
2022-09-26T11:50:04.327Z,15.90
2022-09-26T11:53:05.711Z,15.80
2022-09-26T11:55:57.010Z,15.80
2022-09-26T11:58:40.097Z,15.70
2022-09-26T12:01:27.267Z,15.80
2022-09-26T12:04:14.221Z,15.90
2022-09-26T12:07:01.957Z,16.00
2022-09-26T12:09:45.351Z,16.10
2022-09-26T12:12:29.487Z,16.10
2022-09-26T12:15:22.109Z,16.00
2022-09-26T12:18:13.428Z,16.00
2022-09-26T12:21:02.442Z,16.00
2022-09-26T12:23:41.319Z,16.10
2022-09-26T12:26:26.155Z,16.00
2022-09-26T12:29:09.168Z,15.90
2022-09-26T12:31:57.652Z,15.80
2022-09-26T12:34:37.861Z,15.80
2022-09-26T12:37:32.204Z,15.60
2022-09-26T12:40:18.169Z,15.50
2022-09-26T12:43:22.378Z,15.30
2022-09-26T12:45:58.143Z,15.30
2022-09-26T12:48:46.234Z,15.40
2022-09-26T12:51:16.358Z,15.60
2022-09-26T12:54:04.378Z,15.70
2022-09-26T12:57:09.037Z,15.90
2022-09-26T13:00:08.577Z,16.00
2022-09-26T13:02:35.499Z,16.00
2022-09-26T13:05:36.240Z,16.20
2022-09-26T13:08:11.333Z,16.40
2022-09-26T13:10:44.005Z,16.40
2022-09-26T13:13:23.166Z,16.50
2022-09-26T13:15:53.083Z,16.20
2022-09-26T13:18:35.256Z,16.20
2022-09-26T13:21:05.882Z,16.30
2022-09-26T13:23:36.263Z,16.20
2022-09-26T13:26:05.967Z,16.10
2022-09-26T13:28:34.240Z,16.20
2022-09-26T13:31:18.999Z,16.20
2022-09-26T13:34:13.463Z,16.30
2022-09-26T13:36:41.958Z,16.30
2022-09-26T13:39:35.131Z,16.40
2022-09-26T13:42:29.065Z,16.40
2022-09-26T13:45:07.877Z,16.40
2022-09-26T13:47:40.141Z,16.60
2022-09-26T13:50:27.851Z,16.60
2022-09-26T13:52:57.527Z,16.50
2022-09-26T13:55:25.594Z,16.10
2022-09-26T13:58:06.470Z,15.10
2022-09-26T14:00:39.032Z,14.90
2022-09-26T14:03:18.203Z,14.80
2022-09-26T14:05:46.463Z,14.70
2022-09-26T14:08:44.069Z,14.80
2022-09-26T14:11:27.820Z,15.00
2022-09-26T14:14:21.049Z,15.10
2022-09-26T14:16:54.225Z,15.20
2022-09-26T14:19:36.357Z,15.20
2022-09-26T14:22:19.041Z,15.10
2022-09-26T14:24:47.087Z,15.00
2022-09-26T14:27:36.465Z,15.10
2022-09-26T14:30:23.447Z,14.90
2022-09-26T14:32:51.614Z,15.00
2022-09-26T14:35:32.294Z,15.00
2022-09-26T14:38:01.320Z,15.00
2022-09-26T14:40:29.555Z,15.10
2022-09-26T14:43:16.615Z,15.10
2022-09-26T14:45:47.020Z,15.00
2022-09-26T14:48:35.978Z,14.90
2022-09-26T14:51:15.741Z,15.10
2022-09-26T14:53:42.514Z,15.10
2022-09-26T14:56:10.614Z,15.00
2022-09-26T14:58:37.529Z,14.90
2022-09-26T15:01:23.214Z,14.90
2022-09-26T15:04:14.596Z,14.90
2022-09-26T15:06:48.968Z,15.00
2022-09-26T15:09:24.266Z,15.10
2022-09-26T15:12:01.463Z,15.10
2022-09-26T15:14:59.121Z,15.20
2022-09-26T15:17:33.841Z,15.10
2022-09-26T15:20:02.042Z,15.10
2022-09-26T15:22:29.544Z,15.10
2022-09-26T15:25:10.475Z,15.20
2022-09-26T15:27:37.403Z,15.30
2022-09-26T15:30:19.505Z,15.30
2022-09-26T15:32:49.265Z,15.30
2022-09-26T15:35:16.171Z,15.20
2022-09-26T15:37:43.048Z,15.20
2022-09-26T15:40:17.450Z,15.30
2022-09-26T15:43:00.823Z,15.20
2022-09-26T15:45:46.490Z,15.30
2022-09-26T15:48:19.547Z,15.30
2022-09-26T15:50:58.607Z,15.40
2022-09-26T15:53:31.596Z,15.40
2022-09-26T15:56:18.009Z,15.40
2022-09-26T15:58:57.109Z,15.40
2022-09-26T16:01:26.093Z,15.30
2022-09-26T16:04:00.055Z,15.10
2022-09-26T16:06:43.532Z,15.00
2022-09-26T16:09:21.947Z,14.90
2022-09-26T16:11:55.546Z,14.80
2022-09-26T16:14:34.149Z,14.80
2022-09-26T16:17:13.195Z,14.70
2022-09-26T16:19:48.469Z,14.50
2022-09-26T16:22:49.421Z,14.40
2022-09-26T16:25:20.263Z,14.20
2022-09-26T16:28:11.131Z,14.20
2022-09-26T16:30:42.991Z,14.10
2022-09-26T16:33:10.091Z,14.20
2022-09-26T16:35:38.734Z,14.20
2022-09-26T16:38:20.731Z,14.20
2022-09-26T16:40:57.756Z,14.20
2022-09-26T16:43:31.838Z,14.20
2022-09-26T16:46:00.670Z,14.20
2022-09-26T16:48:36.864Z,14.20
2022-09-26T16:51:38.921Z,14.10
2022-09-26T16:54:20.544Z,14.10
2022-09-26T16:56:51.648Z,14.10
2022-09-26T16:59:23.147Z,14.00
2022-09-26T17:01:55.407Z,14.00
2022-09-26T17:04:32.812Z,13.90
2022-09-26T17:07:00.311Z,13.90
2022-09-26T17:09:29.817Z,13.90
2022-09-26T17:12:02.499Z,13.90
2022-09-26T17:14:30.543Z,14.00
2022-09-26T17:16:58.311Z,13.90
2022-09-26T17:19:27.363Z,13.90
2022-09-26T17:21:55.035Z,13.90
2022-09-26T17:24:23.633Z,13.80
2022-09-26T17:26:54.590Z,13.80
2022-09-26T17:29:24.025Z,13.80
2022-09-26T17:31:51.523Z,13.70
2022-09-26T17:34:18.514Z,13.70
2022-09-26T17:36:47.521Z,13.70
2022-09-26T17:39:15.949Z,13.70
2022-09-26T17:41:43.437Z,13.70
2022-09-26T17:44:10.351Z,13.70
2022-09-26T17:46:38.451Z,13.60
2022-09-26T17:49:06.712Z,13.70
2022-09-26T17:51:33.822Z,13.70
2022-09-26T17:54:00.720Z,13.70
2022-09-26T17:56:27.639Z,13.60
2022-09-26T17:58:55.027Z,13.70
2022-09-26T18:01:22.597Z,13.60
2022-09-26T18:03:50.168Z,13.60
2022-09-26T18:06:17.047Z,13.60
2022-09-26T18:08:45.446Z,13.70
2022-09-26T18:11:16.404Z,13.60
2022-09-26T18:13:54.669Z,13.70
2022-09-26T18:16:22.637Z,13.60
2022-09-26T18:18:49.939Z,13.60
2022-09-26T18:21:18.720Z,13.60
2022-09-26T18:23:52.148Z,13.60
2022-09-26T18:26:36.014Z,13.60
2022-09-26T18:29:07.764Z,13.60
2022-09-26T18:31:36.759Z,13.60
2022-09-26T18:34:03.670Z,13.60
2022-09-26T18:36:33.650Z,13.50
2022-09-26T18:39:00.775Z,13.60
2022-09-26T18:41:28.819Z,13.60
2022-09-26T18:43:56.910Z,13.60
2022-09-26T18:46:23.845Z,13.60
2022-09-26T18:48:50.904Z,13.60
2022-09-26T18:51:17.810Z,13.50
2022-09-26T18:53:44.903Z,13.50
2022-09-26T18:56:30.433Z,13.50
2022-09-26T18:58:57.623Z,13.50
2022-09-26T19:01:35.312Z,13.50
2022-09-26T19:04:04.194Z,13.50
2022-09-26T19:06:38.272Z,13.50
2022-09-26T19:09:06.849Z,13.50
2022-09-26T19:11:35.062Z,13.40
2022-09-26T19:14:20.460Z,13.40
2022-09-26T19:16:48.217Z,13.30
2022-09-26T19:19:15.224Z,13.30
2022-09-26T19:21:43.542Z,13.30
2022-09-26T19:24:20.227Z,13.20
2022-09-26T19:27:01.877Z,13.20
2022-09-26T19:29:41.719Z,13.10
2022-09-26T19:32:31.890Z,13.10
2022-09-26T19:35:00.818Z,13.10
2022-09-26T19:37:27.960Z,13.00
2022-09-26T19:39:56.386Z,13.00
2022-09-26T19:42:23.536Z,13.00
2022-09-26T19:44:51.409Z,12.90
2022-09-26T19:47:19.911Z,12.90
2022-09-26T19:49:47.656Z,12.80
2022-09-26T19:52:19.078Z,12.90
2022-09-26T19:54:46.091Z,12.80
2022-09-26T19:57:15.321Z,12.90
2022-09-26T19:59:42.182Z,12.90
2022-09-26T20:02:20.914Z,12.90
2022-09-26T20:04:48.144Z,12.80
2022-09-26T20:07:16.899Z,12.90
2022-09-26T20:09:43.940Z,12.90
2022-09-26T20:12:10.875Z,12.90
2022-09-26T20:14:37.710Z,12.90
2022-09-26T20:17:23.707Z,12.90
2022-09-26T20:19:53.139Z,12.90
2022-09-26T20:22:23.280Z,12.90
2022-09-26T20:24:53.185Z,12.90
2022-09-26T20:27:27.931Z,12.80
2022-09-26T20:30:13.263Z,12.80
2022-09-26T20:32:42.875Z,12.70
2022-09-26T20:35:15.581Z,12.70
2022-09-26T20:37:42.597Z,12.70
2022-09-26T20:40:14.978Z,12.60
2022-09-26T20:42:44.591Z,12.60
2022-09-26T20:45:20.017Z,12.50
2022-09-26T20:47:46.921Z,12.50
2022-09-26T20:50:15.932Z,12.50
2022-09-26T20:52:42.863Z,12.50
2022-09-26T20:55:15.531Z,12.40
2022-09-26T20:57:42.802Z,12.40
2022-09-26T21:00:16.816Z,12.40
2022-09-26T21:02:43.903Z,12.40
2022-09-26T21:05:31.679Z,12.40
2022-09-26T21:07:58.987Z,12.40
2022-09-26T21:10:30.501Z,12.40
2022-09-26T21:12:57.748Z,12.40
2022-09-26T21:15:25.939Z,12.30
2022-09-26T21:17:53.134Z,12.30
2022-09-26T21:20:24.102Z,12.30
2022-09-26T21:23:02.024Z,12.40
2022-09-26T21:25:31.058Z,12.40
2022-09-26T21:28:00.048Z,12.30
2022-09-26T21:30:27.224Z,12.30
2022-09-26T21:32:58.436Z,12.30
2022-09-26T21:35:27.507Z,12.30
2022-09-26T21:37:54.625Z,12.30
2022-09-26T21:40:22.386Z,12.20
2022-09-26T21:42:50.844Z,12.20
2022-09-26T21:45:17.770Z,12.20
2022-09-26T21:47:44.816Z,12.10
2022-09-26T21:50:14.484Z,12.10
2022-09-26T21:52:46.711Z,12.10
2022-09-26T21:55:21.746Z,12.00
2022-09-26T21:57:49.135Z,12.00
2022-09-26T22:00:16.354Z,12.00
2022-09-26T22:02:43.432Z,12.00
2022-09-26T22:05:17.605Z,12.00
2022-09-26T22:07:44.607Z,12.00
2022-09-26T22:10:12.301Z,12.00
2022-09-26T22:12:39.317Z,11.90
2022-09-26T22:15:07.270Z,11.90
2022-09-26T22:17:34.428Z,11.90
2022-09-26T22:20:01.996Z,11.80
2022-09-26T22:22:29.529Z,11.80
2022-09-26T22:24:58.406Z,11.80
2022-09-26T22:27:25.366Z,11.80
2022-09-26T22:29:52.220Z,11.70
2022-09-26T22:32:19.066Z,11.70
2022-09-26T22:34:45.935Z,11.70
2022-09-26T22:37:12.787Z,11.70
2022-09-26T22:39:39.681Z,11.70
2022-09-26T22:42:07.532Z,11.70
2022-09-26T22:44:35.810Z,11.70
2022-09-26T22:47:02.743Z,11.70
2022-09-26T22:49:29.631Z,11.70
2022-09-26T22:51:56.547Z,11.70
2022-09-26T22:54:23.430Z,11.70
2022-09-26T22:56:50.258Z,11.80
2022-09-26T22:59:17.245Z,11.80
2022-09-26T23:01:44.483Z,11.80
2022-09-26T23:04:11.396Z,11.70
2022-09-26T23:06:38.367Z,11.70
2022-09-26T23:09:05.349Z,11.80
2022-09-26T23:11:32.259Z,11.80
2022-09-26T23:13:59.081Z,11.80
2022-09-26T23:16:28.848Z,11.70
2022-09-26T23:18:55.878Z,11.80
2022-09-26T23:21:24.051Z,11.70
2022-09-26T23:23:55.217Z,11.70
2022-09-26T23:26:24.697Z,11.70
2022-09-26T23:28:52.551Z,11.70
2022-09-26T23:31:19.624Z,11.70
2022-09-26T23:33:46.586Z,11.70
2022-09-26T23:36:13.461Z,11.70
2022-09-26T23:38:40.779Z,11.80
2022-09-26T23:41:08.236Z,11.70
2022-09-26T23:43:35.166Z,11.80
2022-09-26T23:46:02.094Z,11.80
2022-09-26T23:48:29.055Z,11.80
2022-09-26T23:50:56.511Z,11.80
2022-09-26T23:53:23.513Z,11.80
2022-09-26T23:55:50.680Z,11.80
2022-09-26T23:58:17.863Z,11.70
